createdAt,value
2019-05-02T00:02:07.038Z,51.65
2019-05-02T00:04:36.513Z,49.13
2019-05-02T00:07:06.694Z,50.12
2019-05-02T00:09:37.307Z,68.22
2019-05-02T00:12:08.616Z,52.03
2019-05-02T00:14:38.766Z,47.70
2019-05-02T00:17:08.336Z,47.10
2019-05-02T00:19:37.824Z,47.65
2019-05-02T00:22:12.180Z,50.60
2019-05-02T00:24:41.051Z,50.85
2019-05-02T00:27:10.759Z,48.52
2019-05-02T00:29:40.141Z,49.80
2019-05-02T00:32:09.748Z,52.17
2019-05-02T00:34:39.074Z,49.15
2019-05-02T00:37:08.519Z,47.90
2019-05-02T00:39:37.905Z,50.55
2019-05-02T00:42:12.847Z,52.00
2019-05-02T00:44:42.108Z,51.30
2019-05-02T00:47:13.723Z,52.73
2019-05-02T00:49:43.072Z,53.98
2019-05-02T00:52:12.574Z,55.80
2019-05-02T00:54:41.901Z,57.93
2019-05-02T00:57:14.999Z,58.48
2019-05-02T00:59:43.511Z,59.13
2019-05-02T01:02:17.434Z,63.13
2019-05-02T01:04:49.671Z,63.13
2019-05-02T01:07:20.511Z,65.60
2019-05-02T01:09:50.404Z,70.32
2019-05-02T01:12:26.692Z,72.30
2019-05-02T01:14:50.787Z,73.90
2019-05-02T01:17:20.159Z,76.17
2019-05-02T01:19:51.547Z,73.25
2019-05-02T01:22:20.619Z,78.10
2019-05-02T01:24:49.943Z,74.80
2019-05-02T01:27:41.130Z,75.45
2019-05-02T01:30:19.307Z,75.62
2019-05-02T01:32:50.278Z,79.15
2019-05-02T01:35:27.049Z,77.42
2019-05-02T01:38:14.789Z,79.17
2019-05-02T01:40:48.044Z,76.55
2019-05-02T01:43:30.446Z,76.97
2019-05-02T01:45:59.924Z,75.72
2019-05-02T01:48:29.700Z,74.80
2019-05-02T01:50:59.000Z,77.92
2019-05-02T01:53:34.040Z,78.00
2019-05-02T01:55:59.517Z,80.95
2019-05-02T01:58:28.944Z,80.28
2019-05-02T02:00:58.311Z,84.95
2019-05-02T02:03:27.585Z,84.55
2019-05-02T02:05:58.004Z,82.20
2019-05-02T02:08:32.315Z,84.20
2019-05-02T02:10:58.436Z,82.80
2019-05-02T02:13:31.272Z,85.53
2019-05-02T02:16:04.448Z,86.50
2019-05-02T02:18:33.521Z,91.45
2019-05-02T02:21:07.995Z,87.33
2019-05-02T02:23:39.113Z,87.30
2019-05-02T02:26:12.048Z,87.45
2019-05-02T02:28:41.073Z,80.92
2019-05-02T02:31:10.387Z,81.63
2019-05-02T02:33:41.127Z,77.60
2019-05-02T02:36:10.736Z,85.35
2019-05-02T02:38:40.010Z,80.92
2019-05-02T02:41:13.224Z,82.75
2019-05-02T02:43:40.545Z,77.20
2019-05-02T02:46:17.165Z,77.35
2019-05-02T02:48:46.441Z,80.50
2019-05-02T02:51:23.333Z,77.55
2019-05-02T02:53:46.720Z,75.95
2019-05-02T02:56:16.099Z,78.42
2019-05-02T02:58:47.664Z,79.72
2019-05-02T03:01:27.570Z,82.22
2019-05-02T03:03:47.588Z,82.67
2019-05-02T03:06:16.933Z,82.08
2019-05-02T03:08:49.231Z,85.25
2019-05-02T03:11:23.513Z,84.60
2019-05-02T03:14:09.058Z,86.42
2019-05-02T03:16:46.195Z,87.10
2019-05-02T03:21:39.408Z,80.83
2019-05-02T03:24:08.739Z,81.02
2019-05-02T03:26:38.037Z,85.62
2019-05-02T03:29:07.372Z,81.85
2019-05-02T03:31:37.111Z,82.00
2019-05-02T03:34:06.435Z,77.67
2019-05-02T03:36:37.199Z,82.62
2019-05-02T03:39:14.845Z,82.85
2019-05-02T03:41:38.338Z,78.92
2019-05-02T03:44:12.420Z,83.67
2019-05-02T03:46:39.257Z,81.45
2019-05-02T03:49:09.691Z,81.10
2019-05-02T03:51:39.505Z,82.47
2019-05-02T03:54:10.448Z,83.33
2019-05-02T03:56:44.839Z,84.85
2019-05-02T03:59:11.516Z,84.30
2019-05-02T04:01:41.846Z,85.53
2019-05-02T04:04:14.064Z,85.77
2019-05-02T04:06:43.347Z,84.90
2019-05-02T04:09:32.075Z,80.70
2019-05-02T04:11:58.610Z,80.83
2019-05-02T04:14:37.572Z,81.20
2019-05-02T04:16:59.804Z,78.45
2019-05-02T04:19:34.829Z,80.05
2019-05-02T04:22:01.890Z,83.95
2019-05-02T04:24:33.544Z,82.75
2019-05-02T04:27:02.860Z,83.27
2019-05-02T04:29:33.158Z,81.35
2019-05-02T04:32:04.486Z,80.53
2019-05-02T04:34:33.719Z,81.87
2019-05-02T04:37:04.051Z,86.35
2019-05-02T04:39:33.689Z,83.10
2019-05-02T04:42:13.014Z,84.62
2019-05-02T04:44:40.768Z,82.12
2019-05-02T04:47:11.099Z,80.30
2019-05-02T04:49:39.018Z,77.65
2019-05-02T04:52:11.642Z,78.07
2019-05-02T04:54:39.052Z,74.47
2019-05-02T04:57:08.818Z,74.87
2019-05-02T04:59:39.545Z,73.20
2019-05-02T05:02:09.501Z,73.57
2019-05-02T05:04:46.079Z,72.82
2019-05-02T05:07:09.845Z,72.40
2019-05-02T05:09:40.200Z,70.35
2019-05-02T05:12:12.541Z,69.85
2019-05-02T05:14:43.186Z,66.47
2019-05-02T05:17:13.987Z,65.85
2019-05-02T05:19:43.299Z,65.90
2019-05-02T05:22:12.615Z,64.62
2019-05-02T05:24:43.566Z,61.50
2019-05-02T05:27:18.160Z,60.67
2019-05-02T05:29:45.997Z,61.95
2019-05-02T05:32:15.410Z,59.03
2019-05-02T05:34:44.886Z,57.27
2019-05-02T05:37:17.131Z,56.10
2019-05-02T05:39:50.923Z,56.95
2019-05-02T05:42:17.846Z,56.30
2019-05-02T05:44:48.362Z,53.87
2019-05-02T05:47:21.291Z,52.45
2019-05-02T05:49:52.405Z,52.83
2019-05-02T05:52:20.187Z,50.40
2019-05-02T05:54:49.532Z,49.90
2019-05-02T05:57:21.122Z,51.65
2019-05-02T05:59:49.946Z,52.05
2019-05-02T06:02:19.303Z,53.02
2019-05-02T06:04:50.269Z,50.17
2019-05-02T06:07:20.058Z,51.58
2019-05-02T06:09:49.724Z,51.13
2019-05-02T06:12:19.091Z,49.93
2019-05-02T06:14:49.950Z,51.33
2019-05-02T06:17:23.122Z,54.05
2019-05-02T06:19:53.558Z,52.83
2019-05-02T06:22:24.682Z,53.98
2019-05-02T06:24:55.782Z,54.20
2019-05-02T06:27:26.114Z,55.05
2019-05-02T06:29:57.323Z,54.67
2019-05-02T06:32:26.869Z,53.55
2019-05-02T06:34:56.377Z,51.02
2019-05-02T06:37:26.340Z,53.38
2019-05-02T06:39:56.093Z,54.55
2019-05-02T06:42:27.707Z,54.30
2019-05-02T06:44:59.700Z,54.75
2019-05-02T06:47:27.526Z,53.02
2019-05-02T06:50:01.068Z,53.90
2019-05-02T06:52:32.870Z,54.58
2019-05-02T06:55:00.296Z,55.88
2019-05-02T06:57:29.706Z,55.50
2019-05-02T06:59:59.103Z,56.58
2019-05-02T07:02:33.562Z,54.27
2019-05-02T07:04:59.665Z,51.68
2019-05-02T07:07:31.064Z,51.70
2019-05-02T07:10:00.122Z,49.70
2019-05-02T07:12:29.596Z,50.63
2019-05-02T07:15:01.558Z,49.03
2019-05-02T07:17:36.453Z,46.08
2019-05-02T07:20:06.761Z,44.85
2019-05-02T07:22:38.781Z,45.23
2019-05-02T07:25:08.995Z,42.62
2019-05-02T07:27:39.357Z,41.75
2019-05-02T07:30:09.251Z,41.95
2019-05-02T07:32:38.662Z,41.63
2019-05-02T07:35:08.332Z,42.98
2019-05-02T07:37:37.694Z,41.83
2019-05-02T07:40:12.119Z,42.45
2019-05-02T07:42:41.892Z,43.30
2019-05-02T07:45:10.832Z,41.92
2019-05-02T07:47:42.369Z,43.55
2019-05-02T07:50:12.051Z,42.83
2019-05-02T07:52:41.595Z,41.37
2019-05-02T07:55:11.297Z,40.95
2019-05-02T07:57:41.476Z,41.00
2019-05-02T08:00:14.259Z,39.70
2019-05-02T08:05:15.757Z,36.42
2019-05-02T08:07:43.930Z,35.48
2019-05-02T08:10:16.413Z,34.13
2019-05-02T08:12:44.992Z,32.58
2019-05-02T08:15:15.302Z,32.00
2019-05-02T08:17:53.338Z,33.73
2019-05-02T08:20:19.266Z,33.80
2019-05-02T08:22:50.422Z,34.48
2019-05-02T08:25:20.262Z,35.48
2019-05-02T08:27:51.251Z,37.63
2019-05-02T08:30:24.764Z,38.88
2019-05-02T08:32:55.353Z,38.88
2019-05-02T08:35:27.671Z,39.45
2019-05-02T08:37:56.249Z,38.60
2019-05-02T08:40:25.735Z,40.12
2019-05-02T08:42:55.027Z,41.37
2019-05-02T08:45:24.335Z,41.58
2019-05-02T08:47:53.832Z,40.03
2019-05-02T08:50:27.076Z,40.80
2019-05-02T08:52:54.385Z,40.83
2019-05-02T08:55:23.685Z,40.45
2019-05-02T08:57:52.963Z,41.88
2019-05-02T09:00:22.396Z,41.58
2019-05-02T09:02:51.696Z,42.30
2019-05-02T09:05:21.174Z,42.88
2019-05-02T09:07:50.709Z,44.98
2019-05-02T09:10:20.171Z,49.05
2019-05-02T09:12:49.625Z,47.65
2019-05-02T09:15:19.000Z,48.92
2019-05-02T09:17:52.890Z,53.13
2019-05-02T09:20:23.560Z,55.52
2019-05-02T09:22:55.949Z,56.02
2019-05-02T09:25:23.642Z,56.75
2019-05-02T09:27:53.148Z,59.33
2019-05-02T09:30:25.737Z,59.05
2019-05-02T09:32:57.098Z,59.48
2019-05-02T09:35:24.752Z,59.67
2019-05-02T09:37:54.057Z,58.95
2019-05-02T09:40:23.368Z,59.38
2019-05-02T09:42:57.648Z,58.85
2019-05-02T09:45:27.725Z,57.25
2019-05-02T09:48:04.518Z,56.08
2019-05-02T09:50:31.376Z,55.50
2019-05-02T09:53:01.730Z,55.25
2019-05-02T09:55:31.788Z,57.75
2019-05-02T09:58:02.702Z,60.12
2019-05-02T10:00:41.940Z,61.25
2019-05-02T10:03:12.072Z,61.63
2019-05-02T10:05:43.057Z,61.37
2019-05-02T10:08:13.938Z,63.02
2019-05-02T10:10:45.841Z,61.85
2019-05-02T10:13:14.876Z,61.92
2019-05-02T10:15:44.415Z,63.45
2019-05-02T10:18:14.898Z,63.58
2019-05-02T10:20:45.615Z,64.80
2019-05-02T10:23:19.499Z,62.70
2019-05-02T10:25:47.006Z,65.57
2019-05-02T10:28:16.458Z,63.42
2019-05-02T10:30:47.260Z,62.85
2019-05-02T10:33:16.764Z,62.65
2019-05-02T10:35:47.738Z,64.35
2019-05-02T10:38:19.722Z,64.20
2019-05-02T10:40:54.563Z,63.55
2019-05-02T10:43:22.114Z,61.65
2019-05-02T10:45:56.470Z,62.20
2019-05-02T10:48:28.170Z,63.60
2019-05-02T10:50:56.804Z,65.10
2019-05-02T10:53:26.295Z,66.80
2019-05-02T10:55:55.617Z,67.47
2019-05-02T10:58:32.009Z,68.00
2019-05-02T11:00:57.647Z,66.97
2019-05-02T11:03:32.009Z,70.40
2019-05-02T11:06:07.446Z,72.27
2019-05-02T11:08:36.607Z,73.40
2019-05-02T11:11:06.231Z,73.07
2019-05-02T11:13:38.172Z,77.47
2019-05-02T11:16:12.401Z,75.12
2019-05-02T11:18:59.631Z,73.67
2019-05-02T11:21:29.168Z,73.25
2019-05-02T11:23:58.538Z,72.10
2019-05-02T11:26:29.648Z,64.87
2019-05-02T11:28:58.959Z,65.87
2019-05-02T11:31:28.393Z,62.93
2019-05-02T11:33:57.677Z,60.63
2019-05-02T11:36:27.505Z,60.12
2019-05-02T11:39:09.064Z,58.83
2019-05-02T11:41:29.101Z,62.10
2019-05-02T11:43:59.903Z,59.05
2019-05-02T11:46:29.324Z,63.25
2019-05-02T11:48:58.807Z,63.95
2019-05-02T11:51:28.110Z,63.30
2019-05-02T11:53:59.229Z,65.80
2019-05-02T11:56:28.741Z,63.20
2019-05-02T11:58:59.309Z,59.70
2019-05-02T12:01:37.134Z,50.38
2019-05-02T12:03:59.861Z,53.45
2019-05-02T12:06:29.244Z,55.12
2019-05-02T12:08:58.576Z,52.73
2019-05-02T12:11:27.895Z,43.48
2019-05-02T12:13:57.228Z,43.90
2019-05-02T12:16:27.942Z,40.20
2019-05-02T12:19:08.471Z,36.68
2019-05-02T12:21:28.791Z,35.65
2019-05-02T12:23:58.096Z,30.30
2019-05-02T12:26:27.685Z,28.07
2019-05-02T12:28:58.613Z,27.45
2019-05-02T12:31:32.480Z,23.10
2019-05-02T12:34:02.896Z,24.80
2019-05-02T12:36:33.547Z,23.20
2019-05-02T12:39:04.299Z,21.23
2019-05-02T12:41:33.810Z,19.27
2019-05-02T12:44:03.108Z,19.37
2019-05-02T12:46:32.520Z,18.98
2019-05-02T12:49:02.860Z,15.72
2019-05-02T12:51:32.628Z,15.32
2019-05-02T12:54:02.447Z,16.45
2019-05-02T12:56:32.510Z,18.17
2019-05-02T12:59:02.509Z,16.15
2019-05-02T13:01:33.027Z,15.78
2019-05-02T13:04:07.379Z,17.30
2019-05-02T13:06:37.313Z,15.55
2019-05-02T13:09:09.837Z,17.75
2019-05-02T13:11:47.937Z,16.50
2019-05-02T13:14:19.852Z,15.13
2019-05-02T13:16:53.446Z,15.75
2019-05-02T13:19:23.683Z,15.40
2019-05-02T13:22:12.485Z,16.15
2019-05-02T13:24:46.946Z,18.25
2019-05-02T13:27:17.232Z,19.87
2019-05-02T13:29:47.415Z,22.00
2019-05-02T13:32:32.157Z,23.38
2019-05-02T13:35:09.191Z,24.72
2019-05-02T13:37:38.714Z,25.40
2019-05-02T13:40:12.414Z,26.87
2019-05-02T13:42:41.948Z,30.00
2019-05-02T13:45:13.266Z,29.92
2019-05-02T13:47:42.698Z,33.10
2019-05-02T13:50:12.977Z,36.10
2019-05-02T13:52:45.243Z,37.98
2019-05-02T13:55:15.358Z,38.83
2019-05-02T13:57:46.875Z,40.80
2019-05-02T14:00:18.182Z,36.75
2019-05-02T14:02:47.510Z,37.13
2019-05-02T14:05:16.980Z,38.85
2019-05-02T14:07:55.576Z,36.20
2019-05-02T14:10:23.126Z,37.33
2019-05-02T14:13:00.603Z,37.58
2019-05-02T14:15:32.406Z,39.27
2019-05-02T14:18:02.928Z,38.88
2019-05-02T14:20:33.056Z,38.73
2019-05-02T14:23:02.626Z,38.55
2019-05-02T14:25:32.268Z,39.42
2019-05-02T14:28:02.915Z,37.85
2019-05-02T14:30:40.044Z,35.52
2019-05-02T14:33:08.145Z,38.28
2019-05-02T14:35:37.900Z,33.85
2019-05-02T14:38:08.149Z,34.50
2019-05-02T14:40:55.776Z,34.65
2019-05-02T14:43:44.485Z,34.95
2019-05-02T14:46:13.557Z,34.98
2019-05-02T14:48:45.223Z,37.80
2019-05-02T14:51:16.773Z,35.78
2019-05-02T14:53:46.000Z,34.60
2019-05-02T14:56:16.936Z,36.83
2019-05-02T14:58:47.742Z,35.68
2019-05-02T15:01:21.523Z,36.63
2019-05-02T15:03:48.138Z,37.05
2019-05-02T15:06:17.596Z,36.93
2019-05-02T15:08:46.966Z,33.13
2019-05-02T15:11:16.238Z,33.00
2019-05-02T15:13:45.552Z,32.28
2019-05-02T15:16:17.690Z,31.15
2019-05-02T15:18:47.557Z,30.97
2019-05-02T15:21:22.858Z,29.72
2019-05-02T15:23:54.336Z,30.50
2019-05-02T15:26:26.404Z,30.15
2019-05-02T15:28:54.362Z,27.45
2019-05-02T15:31:28.435Z,27.77
2019-05-02T15:34:01.559Z,28.77
2019-05-02T15:41:29.474Z,24.75
2019-05-02T15:43:58.765Z,23.80
2019-05-02T15:46:28.382Z,20.62
2019-05-02T15:49:01.737Z,19.23
2019-05-02T15:51:28.986Z,19.55
2019-05-02T15:54:08.111Z,18.70
2019-05-02T15:56:35.738Z,17.42
2019-05-02T15:59:06.435Z,17.57
2019-05-02T16:01:41.598Z,17.95
2019-05-02T16:06:38.984Z,9.90
2019-05-02T16:09:08.866Z,8.55
2019-05-02T16:11:39.735Z,9.00
2019-05-02T16:14:09.047Z,7.83
2019-05-02T16:16:41.868Z,7.65
2019-05-02T16:19:14.659Z,7.62
2019-05-02T16:21:42.742Z,6.40
2019-05-02T16:24:19.446Z,5.87
2019-05-02T16:26:56.612Z,5.92
2019-05-02T16:29:28.454Z,5.62
2019-05-02T16:32:03.160Z,5.55
2019-05-02T16:34:35.436Z,5.40
2019-05-02T16:37:16.513Z,5.50
2019-05-02T16:39:49.711Z,5.33
2019-05-02T16:42:14.791Z,5.08
2019-05-02T16:44:44.629Z,4.83
2019-05-02T16:47:14.166Z,5.87
2019-05-02T16:49:47.872Z,5.42
2019-05-02T16:52:16.197Z,5.87
2019-05-02T16:54:45.870Z,6.03
2019-05-02T16:57:17.385Z,5.37
2019-05-02T16:59:47.428Z,4.30
2019-05-02T17:02:16.908Z,4.60
2019-05-02T17:04:46.222Z,4.53
2019-05-02T17:07:17.195Z,4.90
2019-05-02T17:10:08.502Z,4.12
2019-05-02T17:12:37.253Z,4.83
2019-05-02T17:15:31.106Z,4.58
2019-05-02T17:18:05.024Z,4.42
2019-05-02T17:20:31.972Z,4.45
2019-05-02T17:23:03.362Z,4.28
2019-05-02T17:25:32.462Z,4.47
2019-05-02T17:28:06.970Z,4.42
2019-05-02T17:30:39.009Z,4.17
2019-05-02T17:33:07.101Z,4.65
2019-05-02T17:35:35.934Z,5.17
2019-05-02T17:38:05.482Z,5.20
2019-05-02T17:40:34.802Z,4.30
2019-05-02T17:43:06.914Z,4.33
2019-05-02T17:45:38.491Z,4.33
2019-05-02T17:48:15.267Z,4.00
2019-05-02T17:50:59.181Z,4.17
2019-05-02T17:53:26.845Z,3.92
2019-05-02T17:55:56.224Z,3.83
2019-05-02T17:58:25.505Z,4.20
2019-05-02T18:00:57.244Z,4.75
2019-05-02T18:03:30.873Z,4.58
2019-05-02T18:05:58.524Z,4.70
2019-05-02T18:08:27.917Z,4.70
2019-05-02T18:11:00.117Z,4.85
2019-05-02T18:13:29.183Z,4.85
2019-05-02T18:15:59.421Z,5.22
2019-05-02T18:18:28.785Z,5.20
2019-05-02T18:20:58.234Z,5.35
2019-05-02T18:23:27.775Z,5.20
2019-05-02T18:26:04.547Z,4.87
2019-05-02T18:28:29.834Z,5.45
2019-05-02T18:31:04.527Z,5.17
2019-05-02T18:33:30.203Z,5.17
2019-05-02T18:35:59.466Z,4.62
2019-05-02T18:38:28.841Z,4.60
2019-05-02T18:41:00.358Z,4.30
2019-05-02T18:43:31.487Z,4.35
2019-05-02T18:46:05.934Z,4.20
2019-05-02T18:48:31.962Z,3.92
2019-05-02T18:51:01.641Z,4.40
2019-05-02T18:53:32.670Z,4.05
2019-05-02T18:56:03.629Z,4.55
2019-05-02T18:58:36.347Z,4.60
2019-05-02T19:01:08.499Z,4.12
2019-05-02T19:03:36.494Z,4.97
2019-05-02T19:06:05.804Z,5.22
2019-05-02T19:08:45.290Z,5.53
2019-05-02T19:11:11.985Z,5.45
2019-05-02T19:13:42.754Z,4.90
2019-05-02T19:16:10.008Z,5.08
2019-05-02T19:18:39.340Z,4.53
2019-05-02T19:21:09.010Z,4.60
2019-05-02T19:23:38.324Z,4.22
2019-05-02T19:26:15.055Z,3.95
2019-05-02T19:28:42.774Z,4.03
2019-05-02T19:33:42.538Z,4.10
2019-05-02T19:36:11.363Z,4.10
2019-05-02T19:38:42.804Z,4.35
2019-05-02T19:41:12.452Z,4.65
2019-05-02T19:43:49.452Z,4.45
2019-05-02T19:46:12.919Z,4.37
2019-05-02T19:48:43.014Z,4.50
2019-05-02T19:51:18.644Z,4.40
2019-05-02T19:53:44.592Z,4.55
2019-05-02T19:56:13.903Z,4.28
2019-05-02T19:58:46.614Z,4.55
2019-05-02T20:01:17.508Z,4.40
2019-05-02T20:03:45.528Z,4.90
2019-05-02T20:06:14.983Z,5.05
2019-05-02T20:08:44.394Z,5.42
2019-05-02T20:11:13.713Z,4.90
2019-05-02T20:13:43.096Z,4.97
2019-05-02T20:16:31.906Z,5.30
2019-05-02T20:19:01.986Z,6.20
2019-05-02T20:21:38.749Z,7.53
2019-05-02T20:24:09.284Z,8.20
2019-05-02T20:26:39.002Z,9.30
2019-05-02T20:29:08.464Z,10.48
2019-05-02T20:31:37.850Z,9.48
2019-05-02T20:34:07.196Z,8.90
2019-05-02T20:36:36.497Z,9.70
2019-05-02T20:39:07.388Z,8.93
2019-05-02T20:41:37.349Z,9.13
2019-05-02T20:44:06.713Z,8.90
2019-05-02T20:46:36.081Z,9.45
2019-05-02T20:49:05.655Z,9.30
2019-05-02T20:51:36.557Z,8.88
2019-05-02T20:54:06.000Z,8.38
2019-05-02T20:56:35.538Z,7.80
2019-05-02T20:59:05.786Z,8.13
2019-05-02T21:01:35.123Z,8.25
2019-05-02T21:04:04.428Z,8.43
2019-05-02T21:06:40.776Z,8.28
2019-05-02T21:09:08.518Z,8.35
2019-05-02T21:11:41.834Z,8.07
2019-05-02T21:14:12.708Z,8.25
2019-05-02T21:16:42.034Z,7.40
2019-05-02T21:19:12.367Z,7.30
2019-05-02T21:21:42.638Z,7.12
2019-05-02T21:24:12.108Z,7.12
2019-05-02T21:26:42.126Z,6.95
2019-05-02T21:29:12.129Z,6.65
2019-05-02T21:31:42.555Z,6.67
2019-05-02T21:34:13.022Z,6.40
2019-05-02T21:36:42.612Z,7.03
2019-05-02T21:39:12.469Z,6.87
2019-05-02T21:41:42.418Z,6.83
2019-05-02T21:44:13.328Z,6.87
2019-05-02T21:46:42.666Z,7.35
2019-05-02T21:49:14.101Z,8.35
2019-05-02T21:51:51.803Z,8.18
2019-05-02T21:54:26.908Z,8.60
2019-05-02T21:57:02.605Z,8.93
2019-05-02T21:59:32.110Z,7.28
2019-05-02T22:02:02.486Z,7.65
2019-05-02T22:04:31.942Z,7.40
2019-05-02T22:07:01.632Z,7.17
2019-05-02T22:09:32.380Z,7.22
2019-05-02T22:12:01.941Z,6.47
2019-05-02T22:14:32.834Z,7.10
2019-05-02T22:17:02.848Z,7.03
2019-05-02T22:19:32.432Z,7.30
2019-05-02T22:22:01.830Z,6.60
2019-05-02T22:24:31.306Z,7.00
2019-05-02T22:27:01.957Z,6.55
2019-05-02T22:29:32.381Z,7.10
2019-05-02T22:32:03.008Z,6.72
2019-05-02T22:34:33.653Z,7.28
2019-05-02T22:37:04.518Z,6.67
2019-05-02T22:39:38.227Z,6.67
2019-05-02T22:42:07.543Z,6.40
2019-05-02T22:44:36.906Z,6.37
2019-05-02T22:47:06.204Z,6.03
2019-05-02T22:49:35.534Z,6.55
2019-05-02T22:52:04.863Z,6.45
2019-05-02T22:54:34.179Z,6.08
2019-05-02T22:57:03.466Z,6.92
2019-05-02T22:59:33.654Z,5.90
2019-05-02T23:02:02.955Z,6.58
2019-05-02T23:04:33.514Z,6.92
2019-05-02T23:07:02.828Z,6.70
2019-05-02T23:09:32.157Z,6.58
2019-05-02T23:12:02.855Z,6.95
2019-05-02T23:14:32.687Z,6.80
2019-05-02T23:17:02.339Z,7.33
2019-05-02T23:19:31.898Z,6.40
2019-05-02T23:22:02.059Z,6.55
2019-05-02T23:24:38.669Z,5.83
2019-05-02T23:27:22.424Z,6.70
2019-05-02T23:29:52.065Z,6.75
2019-05-02T23:32:23.627Z,6.25
2019-05-02T23:34:52.914Z,6.35
2019-05-02T23:37:22.307Z,5.92
2019-05-02T23:39:52.243Z,6.20
2019-05-02T23:42:21.989Z,5.47
2019-05-02T23:44:51.916Z,5.67
2019-05-02T23:47:22.505Z,5.55
2019-05-02T23:49:52.204Z,5.80
2019-05-02T23:52:22.446Z,5.30
2019-05-02T23:54:53.046Z,5.47
2019-05-02T23:57:22.948Z,5.22
2019-05-02T23:59:52.418Z,5.30
